Time;durP1;ratioP1;P1;durP2;ratioP2;P2;SDS_P1;SDS_P2;PMS_P1;PMS_P2;Temp;Humidity;BMP_temperature;BMP_pressure;BME280_temperature;BME280_humidity;BME280_pressure;Samples;Min_cycle;Max_cycle;Signal;HPM_P1;HPM_P2
2023/06/22 00:01:11;;;;;;;13.90;6.90;;;;;;;15.11;44.50;100037.03;5074244;28;20362;-66
2023/06/22 00:03:37;;;;;;;23.33;7.20;;;;;;;15.07;44.09;100039.16;5075103;28;20029;-63
2023/06/22 00:06:02;;;;;;;15.95;6.35;;;;;;;14.98;44.75;100026.59;5074600;28;20464;-64
2023/06/22 00:08:29;;;;;;;20.23;6.63;;;;;;;14.96;44.48;100032.16;5074130;28;20034;-61
2023/06/22 00:10:54;;;;;;;19.27;7.13;;;;;;;14.99;43.94;100029.16;5074970;28;20164;-64
2023/06/22 00:13:20;;;;;;;23.08;8.18;;;;;;;14.96;44.88;100028.59;5074896;28;20466;-63
2023/06/22 00:15:45;;;;;;;22.02;7.30;;;;;;;14.98;45.01;100034.69;5073785;28;20056;-67
2023/06/22 00:18:13;;;;;;;31.25;7.95;;;;;;;14.91;44.74;100032.56;5073723;28;20043;-63
2023/06/22 00:20:38;;;;;;;28.08;9.13;;;;;;;14.91;45.02;100045.19;5073694;28;20534;-64
2023/06/22 00:23:08;;;;;;;23.35;8.23;;;;;;;14.86;45.27;100042.97;5073978;28;20064;-64
2023/06/22 00:25:41;;;;;;;18.60;7.43;;;;;;;14.93;44.94;100044.06;5074466;28;20029;-65
2023/06/22 00:28:07;;;;;;;26.17;9.35;;;;;;;14.70;45.16;100019.25;5079902;28;20089;-63
2023/06/22 00:30:33;;;;;;;29.65;8.95;;;;;;;14.87;45.66;100044.66;5095475;28;20454;-63
2023/06/22 00:33:00;;;;;;;23.05;8.55;;;;;;;14.84;45.94;100047.66;5095304;28;20032;-62
2023/06/22 00:35:30;;;;;;;26.05;8.52;;;;;;;14.81;45.53;100042.53;5094633;28;20031;-62
2023/06/22 00:38:00;;;;;;;21.23;8.38;;;;;;;14.84;45.87;100044.09;5091137;28;20028;-64
2023/06/22 00:40:28;;;;;;;31.05;8.50;;;;;;;14.78;45.59;100042.81;5094042;28;20111;-63
2023/06/22 00:42:55;;;;;;;22.95;8.43;;;;;;;14.74;45.45;100034.19;5094608;28;20031;-63
2023/06/22 00:45:22;;;;;;;26.17;8.43;;;;;;;14.74;45.78;100033.31;5077402;28;20032;-64
2023/06/22 00:47:52;;;;;;;24.27;8.63;;;;;;;14.59;45.13;100012.22;5081505;28;20428;-73
2023/06/22 00:50:28;;;;;;;24.75;7.90;;;;;;;14.84;45.37;100041.38;5092319;28;20454;-70
2023/06/22 00:53:00;;;;;;;30.75;8.57;;;;;;;14.77;45.61;100038.44;5092165;28;20462;-64
2023/06/22 00:55:26;;;;;;;20.45;8.82;;;;;;;14.71;45.87;100042.56;5094129;28;20461;-63
2023/06/22 00:57:56;;;;;;;26.25;8.73;;;;;;;14.71;45.69;100034.50;5093904;28;20028;-64
2023/06/22 01:00:24;;;;;;;26.65;9.02;;;;;;;14.54;46.36;100011.78;5093776;28;20028;-63
2023/06/22 01:02:52;;;;;;;30.15;8.70;;;;;;;14.70;45.83;100042.66;5083004;28;20043;-65
2023/06/22 01:05:22;;;;;;;23.83;7.90;;;;;;;14.75;45.93;100046.66;5073740;28;20048;-63
2023/06/22 01:08:09;;;;;;;27.88;9.00;;;;;;;14.82;45.77;100044.22;5073950;28;20120;-63
2023/06/22 01:10:40;;;;;;;26.27;8.88;;;;;;;14.78;46.14;100049.06;5072454;28;20025;-63
2023/06/22 01:13:11;;;;;;;34.03;8.00;;;;;;;14.76;46.07;100042.97;5073342;28;20032;-62
2023/06/22 01:15:46;;;;;;;24.63;8.43;;;;;;;14.77;46.25;100046.50;5073457;28;20036;-62
2023/06/22 01:18:13;;;;;;;30.80;8.55;;;;;;;14.75;46.28;100046.66;5055062;28;20028;-63
2023/06/22 01:20:40;;;;;;;32.58;8.50;;;;;;;14.75;46.45;100052.06;5073273;28;20049;-63
2023/06/22 01:23:18;;;;;;;28.50;8.45;;;;;;;14.85;46.16;100065.50;5077525;28;20451;-63
2023/06/22 01:26:05;;;;;;;24.88;8.27;;;;;;;14.91;46.47;100055.97;5093468;28;20121;-64
2023/06/22 01:28:47;;;;;;;22.95;7.90;;;;;;;14.82;46.72;100046.09;5092469;28;20032;-63
2023/06/22 01:31:20;;;;;;;21.70;8.00;;;;;;;14.89;45.64;100053.44;5093800;28;20031;-63
2023/06/22 01:33:51;;;;;;;21.83;7.88;;;;;;;14.93;45.85;100053.97;5092596;28;20028;-63
2023/06/22 01:36:18;;;;;;;18.63;8.07;;;;;;;14.96;46.03;100052.84;5093520;28;20069;-62
2023/06/22 01:38:45;;;;;;;26.98;8.65;;;;;;;14.91;45.99;100042.50;5092739;28;20032;-63
2023/06/22 01:41:11;;;;;;;21.90;7.72;;;;;;;14.95;46.45;100046.63;5092400;28;20058;-64
2023/06/22 01:43:38;;;;;;;29.33;7.63;;;;;;;14.99;46.50;100042.63;5087538;28;20043;-65
2023/06/22 01:46:04;;;;;;;22.17;7.82;;;;;;;15.02;46.90;100046.84;5072901;28;20504;-64
2023/06/22 01:48:31;;;;;;;20.33;7.68;;;;;;;15.03;46.77;100046.72;5072768;28;20393;-63
2023/06/22 01:50:57;;;;;;;26.38;7.85;;;;;;;15.11;46.76;100042.44;5072985;28;20454;-63
2023/06/22 01:53:23;;;;;;;22.08;8.02;;;;;;;15.12;45.70;100050.38;5071400;28;20033;-69
2023/06/22 01:55:49;;;;;;;19.35;7.63;;;;;;;15.16;44.98;100038.31;5072998;28;20119;-63
2023/06/22 01:58:15;;;;;;;21.80;7.32;;;;;;;15.24;46.26;100051.03;5073946;28;20055;-63
2023/06/22 02:00:48;;;;;;;18.20;7.38;;;;;;;15.35;46.06;100047.31;5082601;28;20016;-63
2023/06/22 02:03:18;;;;;;;26.00;7.80;;;;;;;15.41;45.97;100056.63;5091613;28;20055;-63
2023/06/22 02:05:56;;;;;;;23.90;7.07;;;;;;;15.51;46.08;100054.75;5093016;28;20089;-63
2023/06/22 02:08:29;;;;;;;25.77;7.88;;;;;;;15.55;45.99;100042.66;5093376;28;20074;-64
2023/06/22 02:10:56;;;;;;;27.42;7.80;;;;;;;15.53;45.62;100039.25;5092947;28;20113;-62
2023/06/22 02:13:24;;;;;;;22.08;7.75;;;;;;;15.56;45.06;100036.25;5091076;28;20032;-64
2023/06/22 02:15:50;;;;;;;19.58;7.68;;;;;;;15.70;44.52;100044.84;5091460;28;20017;-64
2023/06/22 02:18:16;;;;;;;24.73;7.88;;;;;;;15.84;44.91;100036.19;5092831;28;20027;-64
2023/06/22 02:20:41;;;;;;;17.35;7.20;;;;;;;16.00;43.09;100030.13;5092605;28;20491;-63
2023/06/22 02:23:07;;;;;;;16.50;7.43;;;;;;;16.29;43.85;100033.59;5092397;28;20024;-63
2023/06/22 02:25:35;;;;;;;22.55;7.43;;;;;;;16.36;42.84;99989.59;5092247;28;20036;-63
2023/06/22 02:28:01;;;;;;;12.90;7.20;;;;;;;16.77;42.22;100012.50;5091726;28;20024;-64
2023/06/22 02:30:26;;;;;;;22.48;7.82;;;;;;;17.06;42.38;100017.59;5090893;28;20114;-64
2023/06/22 02:32:58;;;;;;;21.65;7.65;;;;;;;17.28;40.69;100018.00;5085556;28;20025;-63
2023/06/22 02:35:31;;;;;;;17.67;7.10;;;;;;;17.47;39.55;100018.75;5073221;28;20036;-72
2023/06/22 02:38:01;;;;;;;16.58;6.97;;;;;;;17.52;38.88;100011.00;5055229;28;20032;-64
2023/06/22 02:40:30;;;;;;;14.60;7.35;;;;;;;17.65;38.43;100015.94;5072146;28;20032;-64
2023/06/22 02:43:01;;;;;;;17.77;7.20;;;;;;;17.86;38.14;100012.78;5072270;28;20032;-62
2023/06/22 02:45:28;;;;;;;17.77;7.72;;;;;;;18.03;37.50;100010.09;5071425;28;20083;-64
2023/06/22 02:47:54;;;;;;;17.15;7.55;;;;;;;18.17;37.10;100000.44;5072230;28;20465;-63
2023/06/22 02:50:20;;;;;;;19.80;7.93;;;;;;;18.25;36.72;100005.03;5071651;28;20081;-64
2023/06/22 02:52:46;;;;;;;14.70;7.25;;;;;;;18.26;36.62;99993.16;5072079;28;20127;-64
2023/06/22 02:55:11;;;;;;;11.05;6.85;;;;;;;18.52;36.42;100003.81;5072031;28;20021;-64
2023/06/22 02:57:37;;;;;;;13.85;6.53;;;;;;;18.84;35.20;99988.50;5072017;28;20029;-63
2023/06/22 03:00:16;;;;;;;12.68;6.43;;;;;;;19.41;34.63;100008.34;5071905;28;20036;-63
2023/06/22 03:02:42;;;;;;;11.25;6.80;;;;;;;20.03;33.29;99984.03;5072070;28;20085;-63
2023/06/22 03:05:09;;;;;;;17.45;6.72;;;;;;;20.69;32.09;99986.13;5071748;28;20024;-62
2023/06/22 03:07:36;;;;;;;11.80;6.10;;;;;;;21.15;30.80;99952.47;5081873;28;20052;-64
2023/06/22 03:10:02;;;;;;;14.60;6.93;;;;;;;21.89;30.13;99985.97;5091890;28;20028;-63
2023/06/22 03:12:29;;;;;;;11.45;6.10;;;;;;;22.48;29.50;99983.16;5083818;28;20411;-64
2023/06/22 03:14:55;;;;;;;11.52;5.95;;;;;;;22.86;28.90;99977.34;5071409;28;20113;-66
2023/06/22 03:17:20;;;;;;;12.85;5.47;;;;;;;23.26;27.97;99982.19;5071385;28;20370;-63
2023/06/22 03:19:46;;;;;;;8.80;5.38;;;;;;;23.69;27.49;99975.56;5071520;28;20166;-64
2023/06/22 03:22:11;;;;;;;10.77;5.55;;;;;;;24.10;26.55;99971.03;5085577;28;20039;-63
2023/06/22 03:24:38;;;;;;;10.68;5.75;;;;;;;24.40;26.13;99964.31;5092114;28;20028;-62
2023/06/22 03:27:05;;;;;;;11.00;5.90;;;;;;;24.75;25.62;99967.63;5095908;28;20113;-62
2023/06/22 03:29:31;;;;;;;11.50;5.35;;;;;;;25.01;24.67;99967.78;5094787;28;20054;-63
2023/06/22 03:31:56;;;;;;;8.38;4.80;;;;;;;25.34;24.21;99967.66;5075399;28;20056;-64
2023/06/22 03:34:22;;;;;;;8.40;5.18;;;;;;;25.62;23.92;99971.13;5075760;28;20031;-63
2023/06/22 03:36:47;;;;;;;10.88;5.18;;;;;;;25.88;23.60;99972.00;5075328;28;20825;-62
2023/06/22 03:39:13;;;;;;;9.40;5.15;;;;;;;26.16;23.11;99960.66;5074600;28;20514;-63
2023/06/22 03:41:38;;;;;;;10.93;5.88;;;;;;;26.53;22.94;99962.63;5075458;28;20032;-63
2023/06/22 03:44:04;;;;;;;8.27;5.18;;;;;;;26.77;22.79;99952.69;5075509;28;20032;-64
2023/06/22 03:46:30;;;;;;;11.52;5.13;;;;;;;27.04;22.60;99949.66;5074131;28;20036;-63
2023/06/22 03:48:55;;;;;;;13.80;5.97;;;;;;;27.10;22.02;99942.38;5075195;28;20371;-63
2023/06/22 03:51:21;;;;;;;10.93;5.50;;;;;;;27.40;21.90;99951.72;5082956;28;20025;-64
2023/06/22 03:53:47;;;;;;;12.45;5.93;;;;;;;27.72;21.58;99954.25;5095553;28;20111;-63
2023/06/22 03:56:20;;;;;;;9.85;5.22;;;;;;;28.07;21.11;99943.31;5077373;28;20093;-63
2023/06/22 03:58:46;;;;;;;9.82;5.18;;;;;;;28.22;20.26;99893.38;5093943;28;20062;-63
2023/06/22 04:01:12;;;;;;;7.18;4.70;;;;;;;28.93;19.72;99953.06;5094365;28;20063;-63
2023/06/22 04:03:38;;;;;;;9.40;4.82;;;;;;;29.36;19.45;99955.56;5094514;28;20051;-64
2023/06/22 04:06:04;;;;;;;10.73;5.10;;;;;;;30.04;18.78;99955.75;5093571;28;20056;-64
2023/06/22 04:08:29;;;;;;;11.40;5.00;;;;;;;30.81;17.79;99946.13;5077232;28;20024;-72
2023/06/22 04:10:55;;;;;;;8.45;4.57;;;;;;;31.47;17.74;99920.38;5095645;28;20032;-65
2023/06/22 04:13:21;;;;;;;10.88;4.45;;;;;;;32.17;16.52;99945.41;5095421;28;20036;-65
2023/06/22 04:15:46;;;;;;;13.55;5.20;;;;;;;32.55;15.99;99939.00;5095049;28;20020;-64
2023/06/22 04:18:13;;;;;;;10.55;4.57;;;;;;;32.82;15.83;99940.84;5094662;28;20024;-70
2023/06/22 04:20:39;;;;;;;8.02;4.40;;;;;;;33.11;16.10;99941.25;5075207;28;20467;-64
2023/06/22 04:23:05;;;;;;;8.32;4.50;;;;;;;33.55;15.39;99947.50;5074262;28;20074;-65
2023/06/22 04:25:30;;;;;;;6.80;4.10;;;;;;;33.86;14.87;99939.19;5074286;28;20060;-68
2023/06/22 04:27:56;;;;;;;7.13;3.95;;;;;;;34.31;14.61;99943.09;5072900;28;20029;-66
2023/06/22 04:30:21;;;;;;;7.78;3.90;;;;;;;34.42;14.83;99943.91;5078025;28;20122;-64
2023/06/22 04:32:57;;;;;;;5.95;3.80;;;;;;;34.48;14.85;99955.84;5077080;28;20397;-66
2023/06/22 04:35:26;;;;;;;8.27;4.25;;;;;;;34.54;14.82;99942.81;5085639;28;20036;-69
2023/06/22 04:37:54;;;;;;;8.27;3.95;;;;;;;34.01;15.20;99943.97;5094180;28;20039;-67
2023/06/22 04:40:23;;;;;;;10.75;4.18;;;;;;;33.59;15.62;99946.69;5094280;28;20024;-66
2023/06/22 04:42:52;;;;;;;8.40;3.80;;;;;;;33.43;15.89;99920.84;5094189;28;20118;-66
2023/06/22 04:45:18;;;;;;;8.38;4.10;;;;;;;33.84;15.57;99931.16;5094046;28;20362;-66
2023/06/22 04:47:45;;;;;;;7.60;4.00;;;;;;;34.53;14.74;99888.34;5078113;28;20033;-66
2023/06/22 04:50:14;;;;;;;7.82;3.78;;;;;;;35.81;14.04;99924.94;5072900;28;20035;-67
2023/06/22 04:52:39;;;;;;;8.68;3.58;;;;;;;36.25;13.38;99886.94;5074135;28;20061;-67
2023/06/22 04:55:06;;;;;;;7.20;3.72;;;;;;;36.87;13.21;99927.25;5062862;28;20446;-65
2023/06/22 04:57:34;;;;;;;11.10;3.55;;;;;;;37.08;13.08;99925.06;5094419;28;20062;-68
2023/06/22 05:00:13;;;;;;;5.30;3.45;;;;;;;37.38;12.92;99938.88;5093196;28;20032;-69
2023/06/22 05:02:41;;;;;;;6.63;3.47;;;;;;;37.20;12.78;99946.97;5075817;28;20134;-68
2023/06/22 05:05:08;;;;;;;9.23;3.75;;;;;;;35.95;13.61;99927.88;5073634;28;20390;-68
2023/06/22 05:07:34;;;;;;;7.45;3.20;;;;;;;34.74;14.34;99925.22;5073379;28;20112;-75
2023/06/22 05:10:01;;;;;;;3.65;3.15;;;;;;;34.06;15.41;99942.00;5073622;28;20402;-67
2023/06/22 05:12:29;;;;;;;4.88;3.40;;;;;;;33.38;15.78;99912.47;5074001;28;20033;-67
2023/06/22 05:14:56;;;;;;;6.10;3.72;;;;;;;33.73;15.63;99941.44;5073472;28;20047;-68
2023/06/22 05:17:21;;;;;;;8.25;3.85;;;;;;;34.60;14.98;99933.34;5073872;28;20051;-67
2023/06/22 05:19:50;;;;;;;6.78;3.50;;;;;;;35.36;14.33;99924.97;5092534;28;20443;-68
2023/06/22 05:22:16;;;;;;;3.90;3.40;;;;;;;35.74;13.94;99930.03;5075928;28;20036;-67
2023/06/22 05:24:42;;;;;;;5.25;3.60;;;;;;;35.77;14.19;99946.16;5093404;28;20476;-67
2023/06/22 05:27:08;;;;;;;4.93;2.88;;;;;;;37.02;13.30;99931.88;5093370;28;20032;-67
2023/06/22 05:29:36;;;;;;;5.65;3.53;;;;;;;38.50;11.95;99937.38;5093764;28;20044;-78
2023/06/22 05:32:02;;;;;;;4.28;3.63;;;;;;;40.27;10.66;99931.44;5093841;28;20032;-67
2023/06/22 05:34:28;;;;;;;6.10;3.10;;;;;;;41.81;9.78;99930.81;5093195;28;20020;-67
2023/06/22 05:36:54;;;;;;;5.32;3.58;;;;;;;43.03;9.05;99925.91;5075266;28;20585;-68
2023/06/22 05:39:19;;;;;;;6.25;3.25;;;;;;;44.09;8.03;99922.16;5072403;28;20071;-67
2023/06/22 05:41:45;;;;;;;5.32;3.50;;;;;;;44.82;8.03;99928.25;5055448;28;20504;-67
2023/06/22 05:44:12;;;;;;;5.00;3.65;;;;;;;45.53;7.46;99894.09;5072518;28;20499;-65
2023/06/22 05:46:44;;;;;;;4.20;3.80;;;;;;;46.63;7.12;99932.59;5071911;28;20104;-67
2023/06/22 05:49:10;;;;;;;5.95;3.33;;;;;;;47.25;6.74;99925.50;5072554;28;20031;-67
2023/06/22 05:51:35;;;;;;;4.22;3.38;;;;;;;47.78;6.03;99915.66;5072284;28;20032;-75
2023/06/22 05:54:01;;;;;;;4.93;3.63;;;;;;;48.25;6.44;99916.53;5071517;28;20071;-66
2023/06/22 05:56:26;;;;;;;3.92;3.55;;;;;;;48.00;6.23;99912.03;5072385;28;20398;-67
2023/06/22 05:58:52;;;;;;;5.43;3.40;;;;;;;47.77;6.08;99925.38;5072686;28;20398;-66
2023/06/22 06:01:17;;;;;;;5.72;3.67;;;;;;;47.62;6.20;99912.91;5072781;28;20075;-68
2023/06/22 06:03:44;;;;;;;4.78;3.85;;;;;;;47.98;6.09;99913.59;5072225;28;20035;-68
2023/06/22 06:06:10;;;;;;;7.40;3.60;;;;;;;48.65;5.87;99917.19;5072472;28;20097;-67
2023/06/22 06:08:39;;;;;;;6.13;3.60;;;;;;;49.11;5.96;99908.53;5071695;28;20431;-71
2023/06/22 06:11:05;;;;;;;4.75;4.00;;;;;;;49.48;5.21;99917.53;5072693;28;20036;-67
2023/06/22 06:13:31;;;;;;;3.95;3.58;;;;;;;49.33;5.58;99888.94;5072209;28;20032;-65
2023/06/22 06:15:57;;;;;;;4.45;3.60;;;;;;;48.97;5.59;99914.84;5072263;28;20033;-66
2023/06/22 06:18:23;;;;;;;4.47;3.70;;;;;;;49.14;5.60;99915.47;5072008;28;20409;-65
2023/06/22 06:20:50;;;;;;;4.88;3.67;;;;;;;49.63;5.36;99902.28;5071815;28;20048;-66
2023/06/22 06:23:15;;;;;;;6.70;3.78;;;;;;;49.63;5.05;99915.69;5072018;28;20028;-67
2023/06/22 06:25:41;;;;;;;6.85;3.88;;;;;;;49.50;5.49;99924.50;5072020;28;20044;-67
2023/06/22 06:28:07;;;;;;;7.82;3.65;;;;;;;49.28;5.55;99912.84;5072879;28;20577;-75
2023/06/22 06:30:33;;;;;;;7.57;3.53;;;;;;;50.17;4.89;99916.25;5072403;28;20107;-66
2023/06/22 06:32:58;;;;;;;7.57;4.00;;;;;;;50.93;5.01;99918.84;5054302;28;20116;-66
2023/06/22 06:35:24;;;;;;;5.35;4.18;;;;;;;50.94;4.43;99889.16;5071997;28;20074;-66
2023/06/22 06:37:50;;;;;;;7.53;4.03;;;;;;;51.52;4.52;99912.22;5071969;28;20046;-66
2023/06/22 06:40:18;;;;;;;4.38;3.72;;;;;;;50.95;4.74;99900.16;5071115;28;20024;-67
2023/06/22 06:42:46;;;;;;;8.20;3.47;;;;;;;50.93;4.48;99916.81;5071185;28;20461;-66
2023/06/22 06:45:16;;;;;;;6.18;3.28;;;;;;;50.87;4.52;99921.25;5071872;28;20417;-67
2023/06/22 06:47:42;;;;;;;6.55;3.17;;;;;;;49.74;4.72;99904.41;5072541;28;20428;-66
2023/06/22 06:50:09;;;;;;;6.32;3.60;;;;;;;48.32;5.81;99888.25;5071042;28;20074;-66
2023/06/22 06:52:35;;;;;;;5.38;3.70;;;;;;;47.34;6.07;99909.09;5072233;28;20033;-67
2023/06/22 06:55:00;;;;;;;5.72;3.83;;;;;;;47.26;6.74;99910.94;5072077;28;20116;-67
2023/06/22 06:57:29;;;;;;;8.85;4.18;;;;;;;46.93;6.88;99906.59;5071561;28;20029;-67
2023/06/22 06:59:58;;;;;;;4.22;3.55;;;;;;;45.06;7.14;99906.00;5068539;28;20052;-64
2023/06/22 07:02:24;;;;;;;4.60;3.45;;;;;;;43.56;8.09;99905.78;5073563;28;20106;-64
2023/06/22 07:04:49;;;;;;;4.03;3.35;;;;;;;42.52;8.95;99903.31;5075737;28;20396;-62
2023/06/22 07:07:15;;;;;;;6.07;3.65;;;;;;;42.77;8.90;99899.88;5076126;28;20036;-63
2023/06/22 07:09:41;;;;;;;4.90;3.20;;;;;;;43.15;8.38;99898.97;5076210;28;20047;-61
2023/06/22 07:12:07;;;;;;;4.45;3.22;;;;;;;43.00;8.29;99891.97;5074754;28;20027;-65
2023/06/22 07:14:32;;;;;;;10.27;3.28;;;;;;;42.74;8.44;99901.38;5075209;28;20028;-61
2023/06/22 07:16:58;;;;;;;7.35;3.58;;;;;;;42.73;8.80;99892.13;5076005;28;20060;-61
2023/06/22 07:19:25;;;;;;;4.60;3.53;;;;;;;42.78;8.63;99907.16;5082977;28;20040;-63
2023/06/22 07:21:51;;;;;;;3.80;3.40;;;;;;;42.30;8.94;99890.31;5094689;28;20032;-63
2023/06/22 07:24:17;;;;;;;6.63;3.20;;;;;;;41.95;9.36;99890.41;5092817;28;20024;-67
2023/06/22 07:26:45;;;;;;;4.03;3.70;;;;;;;41.73;9.72;99878.25;5075544;28;20431;-67
2023/06/22 07:29:11;;;;;;;5.15;3.53;;;;;;;41.90;9.83;99900.69;5076342;28;20465;-71
2023/06/22 07:31:37;;;;;;;4.35;3.28;;;;;;;41.60;9.64;99872.47;5095780;28;20059;-65
2023/06/22 07:34:04;;;;;;;4.35;3.38;;;;;;;41.19;10.09;99885.03;5087213;28;20028;-71
2023/06/22 07:36:30;;;;;;;7.25;3.47;;;;;;;39.90;11.10;99884.72;5082461;28;20035;-67
2023/06/22 07:38:55;;;;;;;3.88;3.58;;;;;;;38.53;11.81;99888.34;5089799;28;20066;-68
2023/06/22 07:41:21;;;;;;;4.65;3.63;;;;;;;37.43;12.87;99872.63;5082001;28;20028;-68
2023/06/22 07:43:46;;;;;;;3.60;3.30;;;;;;;35.81;14.28;99890.69;5074058;28;20153;-68
2023/06/22 07:46:12;;;;;;;3.60;3.13;;;;;;;34.88;15.04;99887.38;5091605;28;20064;-66
2023/06/22 07:48:39;;;;;;;6.50;3.80;;;;;;;34.92;15.03;99879.25;5088147;28;20048;-68
2023/06/22 07:51:05;;;;;;;12.95;3.70;;;;;;;35.21;14.89;99861.91;5074744;28;20037;-69
2023/06/22 07:53:31;;;;;;;4.40;3.67;;;;;;;35.52;14.41;99877.56;5074154;28;20032;-68
2023/06/22 07:55:57;;;;;;;5.95;3.80;;;;;;;35.27;14.55;99869.09;5074874;28;20032;-70
2023/06/22 07:58:22;;;;;;;9.93;3.88;;;;;;;34.92;14.88;99860.63;5079302;28;20049;-70
2023/06/22 08:00:49;;;;;;;10.18;3.83;;;;;;;34.48;15.37;99872.47;5078737;28;20056;-69
2023/06/22 08:03:15;;;;;;;8.57;4.03;;;;;;;34.03;15.67;99883.44;5094674;28;20074;-66
2023/06/22 08:05:40;;;;;;;10.63;4.35;;;;;;;33.52;16.53;99862.88;5090029;28;20466;-73
2023/06/22 08:08:06;;;;;;;5.97;3.80;;;;;;;33.29;16.57;99865.03;5076698;28;20114;-63
2023/06/22 08:10:31;;;;;;;7.47;3.97;;;;;;;33.46;16.51;99859.25;5072186;28;20328;-66
2023/06/22 08:12:57;;;;;;;12.73;4.32;;;;;;;34.10;16.16;99872.84;5077534;28;20485;-65
2023/06/22 08:15:22;;;;;;;9.52;3.67;;;;;;;34.85;15.38;99867.63;5083733;28;20024;-63
2023/06/22 08:17:48;;;;;;;5.53;3.63;;;;;;;35.67;14.32;99832.88;5093231;28;20430;-65
2023/06/22 08:20:14;;;;;;;6.45;3.58;;;;;;;37.13;13.91;99859.97;5090718;28;20129;-60
2023/06/22 08:22:41;;;;;;;9.35;3.70;;;;;;;37.75;12.87;99861.81;5074734;28;20051;-59
2023/06/22 08:25:07;;;;;;;9.68;4.25;;;;;;;37.45;13.26;99858.38;5073371;28;20040;-58
2023/06/22 08:27:33;;;;;;;7.28;3.63;;;;;;;36.62;13.79;99856.72;5074751;28;20035;-64
2023/06/22 08:30:02;;;;;;;8.52;4.00;;;;;;;35.36;14.53;99838.69;5083694;28;20028;-63
2023/06/22 08:32:32;;;;;;;10.77;4.70;;;;;;;34.74;15.23;99855.72;5071699;28;20036;-67
2023/06/22 08:34:58;;;;;;;10.10;4.20;;;;;;;34.10;16.09;99853.41;5075615;28;20027;-65
2023/06/22 08:37:30;;;;;;;6.38;3.80;;;;;;;33.35;16.47;99860.31;5093479;28;20040;-61
2023/06/22 08:40:00;;;;;;;4.63;3.40;;;;;;;32.61;17.14;99866.72;5093450;28;20032;-61
2023/06/22 08:42:27;;;;;;;6.47;3.78;;;;;;;32.11;18.09;99862.53;5093801;28;20024;-64
2023/06/22 08:44:53;;;;;;;4.53;3.58;;;;;;;31.54;18.54;99843.53;5091766;28;20394;-64
2023/06/22 08:47:20;;;;;;;6.85;3.67;;;;;;;31.24;18.45;99842.16;5072749;28;20078;-69
2023/06/22 08:49:45;;;;;;;5.57;3.42;;;;;;;31.05;18.78;99838.91;5090704;28;20060;-64
2023/06/22 08:52:11;;;;;;;7.45;3.85;;;;;;;30.79;19.26;99850.50;5092553;28;20052;-62
2023/06/22 08:54:36;;;;;;;4.85;3.80;;;;;;;30.45;19.25;99839.56;5093359;28;20028;-65
2023/06/22 08:57:02;;;;;;;9.85;3.85;;;;;;;30.00;20.06;99837.78;5088688;28;20331;-63
2023/06/22 08:59:28;;;;;;;6.80;3.83;;;;;;;29.63;20.33;99850.19;5080306;28;20031;-64
2023/06/22 09:01:54;;;;;;;7.18;3.90;;;;;;;29.37;20.80;99845.00;5077109;28;20028;-66
2023/06/22 09:04:22;;;;;;;11.38;4.32;;;;;;;29.21;21.17;99845.84;5073580;28;20390;-65
2023/06/22 09:06:48;;;;;;;5.90;3.83;;;;;;;29.02;21.32;99842.44;5085010;28;20044;-65
2023/06/22 09:09:14;;;;;;;5.53;3.97;;;;;;;28.83;21.45;99830.78;5085577;28;20074;-62
2023/06/22 09:11:40;;;;;;;7.63;4.50;;;;;;;28.74;21.63;99844.91;5074599;28;20036;-63
2023/06/22 09:14:06;;;;;;;6.43;4.05;;;;;;;28.51;21.80;99808.09;5073054;28;20028;-65
2023/06/22 09:16:31;;;;;;;3.97;3.65;;;;;;;28.52;21.44;99819.94;5077455;28;20052;-67
2023/06/22 09:18:57;;;;;;;6.90;3.80;;;;;;;28.25;22.24;99819.66;5072342;28;20044;-65
2023/06/22 09:21:23;;;;;;;5.30;3.80;;;;;;;27.91;22.40;99826.56;5072964;28;20082;-65
2023/06/22 09:23:51;;;;;;;7.57;4.55;;;;;;;27.78;22.98;99818.56;5072148;28;20036;-62
2023/06/22 09:26:20;;;;;;;8.35;4.47;;;;;;;27.82;22.83;99821.66;5071543;28;20348;-65
2023/06/22 09:28:46;;;;;;;7.20;4.32;;;;;;;27.76;23.32;99821.53;5073164;28;20959;-64
2023/06/22 09:31:12;;;;;;;7.65;4.55;;;;;;;27.79;22.94;99818.28;5075598;28;20036;-69
2023/06/22 09:33:40;;;;;;;8.80;4.57;;;;;;;27.96;22.86;99825.00;5081398;28;20418;-65
2023/06/22 09:36:09;;;;;;;7.05;4.50;;;;;;;28.08;23.35;99817.59;5092474;28;20481;-63
2023/06/22 09:38:35;;;;;;;9.88;4.47;;;;;;;28.23;23.27;99822.63;5093078;28;20077;-64
2023/06/22 09:41:01;;;;;;;9.98;4.72;;;;;;;28.39;22.70;99820.22;5092138;28;20130;-64
2023/06/22 09:43:27;;;;;;;7.25;4.30;;;;;;;28.34;22.23;99813.53;5091550;28;20020;-64
2023/06/22 09:45:52;;;;;;;7.72;3.95;;;;;;;28.36;22.75;99811.38;5092176;28;20107;-63
2023/06/22 09:48:18;;;;;;;4.93;3.97;;;;;;;28.43;22.42;99813.13;5067163;28;20418;-63
2023/06/22 09:50:43;;;;;;;6.68;4.20;;;;;;;28.40;22.94;99808.94;5075385;28;20052;-67
2023/06/22 09:53:09;;;;;;;7.35;3.88;;;;;;;28.41;22.61;99807.88;5090624;28;20036;-63
2023/06/22 09:55:35;;;;;;;6.43;4.45;;;;;;;28.33;22.18;99794.47;5091529;28;20028;-65
2023/06/22 09:58:00;;;;;;;7.28;4.50;;;;;;;28.20;22.52;99801.91;5092679;28;20056;-66
2023/06/22 10:00:26;;;;;;;6.70;4.25;;;;;;;27.98;23.01;99792.59;5075330;28;20032;-64
2023/06/22 10:02:52;;;;;;;7.07;4.55;;;;;;;27.94;22.54;99804.06;5070255;28;20120;-64
2023/06/22 10:05:18;;;;;;;5.43;4.53;;;;;;;27.78;22.92;99805.63;5071839;28;20115;-65
2023/06/22 10:07:43;;;;;;;6.93;4.22;;;;;;;27.43;22.86;99778.91;5071398;28;20028;-65
2023/06/22 10:10:10;;;;;;;6.68;4.00;;;;;;;27.52;23.12;99795.94;5054965;28;20028;-65
2023/06/22 10:12:36;;;;;;;5.65;4.43;;;;;;;27.51;23.11;99794.25;5072097;28;20034;-63
2023/06/22 10:15:02;;;;;;;7.70;4.15;;;;;;;27.56;23.11;99802.63;5083481;28;20464;-63
2023/06/22 10:17:31;;;;;;;8.88;4.97;;;;;;;27.68;23.36;99788.03;5059160;28;20071;-63
2023/06/22 10:19:56;;;;;;;6.40;3.85;;;;;;;27.67;23.25;99791.88;5071768;28;20442;-63
2023/06/22 10:22:22;;;;;;;8.07;4.60;;;;;;;27.72;23.25;99784.56;5081484;28;20032;-61
2023/06/22 10:24:48;;;;;;;5.65;4.32;;;;;;;27.78;23.03;99771.78;5077143;28;20040;-70
2023/06/22 10:27:13;;;;;;;6.10;4.00;;;;;;;27.85;22.72;99767.00;5079855;28;20119;-65
2023/06/22 10:29:39;;;;;;;8.23;4.85;;;;;;;27.87;22.78;99775.84;5070950;28;20043;-68
2023/06/22 10:32:05;;;;;;;5.90;4.40;;;;;;;27.82;23.42;99775.72;5071286;28;20036;-67
2023/06/22 10:34:30;;;;;;;7.85;4.72;;;;;;;27.78;23.74;99771.78;5070058;28;20059;-66
2023/06/22 10:36:56;;;;;;;10.15;5.07;;;;;;;27.74;23.88;99765.91;5069974;28;20415;-66
2023/06/22 10:39:21;;;;;;;7.22;4.70;;;;;;;27.64;24.00;99752.75;5070258;28;20024;-66
2023/06/22 10:41:47;;;;;;;5.85;4.60;;;;;;;27.34;23.94;99726.19;5071404;28;20032;-66
2023/06/22 10:44:13;;;;;;;7.97;4.10;;;;;;;27.41;23.92;99744.47;5072627;28;20470;-65
2023/06/22 10:46:39;;;;;;;6.45;4.53;;;;;;;27.49;24.18;99750.47;5075140;28;20358;-64
2023/06/22 10:49:04;;;;;;;7.03;4.20;;;;;;;27.56;24.40;99744.88;5091623;28;20035;-65
2023/06/22 10:51:31;;;;;;;8.32;5.70;;;;;;;27.40;24.63;99745.53;5076718;28;20037;-65
2023/06/22 10:53:56;;;;;;;6.30;5.20;;;;;;;27.08;24.43;99736.53;5068189;28;20123;-64
2023/06/22 10:56:22;;;;;;;6.25;5.55;;;;;;;27.04;24.44;99707.03;5070136;28;20100;-65
2023/06/22 10:58:48;;;;;;;6.97;5.10;;;;;;;27.39;24.87;99741.13;5071234;28;20024;-65
2023/06/22 11:01:14;;;;;;;8.07;4.97;;;;;;;27.49;25.02;99744.97;5070883;28;20024;-67
2023/06/22 11:03:39;;;;;;;9.27;4.90;;;;;;;27.54;23.82;99737.94;5071297;28;20547;-66
2023/06/22 11:06:05;;;;;;;6.32;4.47;;;;;;;27.68;24.03;99741.28;5071732;28;20032;-66
2023/06/22 11:08:30;;;;;;;7.00;4.63;;;;;;;27.74;24.14;99726.59;5072604;28;20108;-66
2023/06/22 11:10:56;;;;;;;6.13;4.60;;;;;;;27.70;23.92;99733.63;5091616;28;20032;-66
2023/06/22 11:13:21;;;;;;;6.25;5.13;;;;;;;27.65;24.16;99724.19;5091471;28;20522;-65
2023/06/22 11:15:47;;;;;;;7.38;4.60;;;;;;;27.61;23.85;99719.41;5088414;28;20024;-69
2023/06/22 11:18:12;;;;;;;5.97;4.55;;;;;;;27.56;23.74;99722.88;5070113;28;20133;-65
2023/06/22 11:20:38;;;;;;;7.35;5.15;;;;;;;27.53;24.12;99704.13;5070743;28;20044;-65
2023/06/22 11:23:08;;;;;;;6.78;5.20;;;;;;;27.68;24.26;99716.53;5070786;28;20331;-65
2023/06/22 11:25:38;;;;;;;6.15;4.40;;;;;;;27.87;24.16;99715.31;5071873;28;20097;-65
2023/06/22 11:28:04;;;;;;;10.43;5.25;;;;;;;27.87;23.43;99693.31;5070687;28;20029;-66